sensor_id;sensor_type;location;lat;lon;timestamp;P1;durP1;ratioP1;P2;durP2;ratioP2
61091;SDS011;46975;51.898;11.444;2022-12-18T00:00:53;36.85;;;14.80;;
61091;SDS011;46975;51.898;11.444;2022-12-18T00:03:20;35.50;;;14.65;;
61091;SDS011;46975;51.898;11.444;2022-12-18T00:05:51;33.17;;;15.07;;
61091;SDS011;46975;51.898;11.444;2022-12-18T00:08:17;27.48;;;13.68;;
61091;SDS011;46975;51.898;11.444;2022-12-18T00:10:44;34.45;;;15.07;;
61091;SDS011;46975;51.898;11.444;2022-12-18T00:13:10;36.33;;;16.08;;
61091;SDS011;46975;51.898;11.444;2022-12-18T00:15:36;37.65;;;15.82;;
61091;SDS011;46975;51.898;11.444;2022-12-18T00:18:04;34.90;;;14.60;;
61091;SDS011;46975;51.898;11.444;2022-12-18T00:20:30;33.22;;;13.73;;
61091;SDS011;46975;51.898;11.444;2022-12-18T00:22:56;39.10;;;16.95;;
61091;SDS011;46975;51.898;11.444;2022-12-18T00:25:22;35.50;;;14.40;;
61091;SDS011;46975;51.898;11.444;2022-12-18T00:27:48;33.53;;;15.10;;
61091;SDS011;46975;51.898;11.444;2022-12-18T00:30:13;38.78;;;16.40;;
61091;SDS011;46975;51.898;11.444;2022-12-18T00:32:39;33.38;;;15.20;;
61091;SDS011;46975;51.898;11.444;2022-12-18T00:35:06;31.05;;;12.60;;
61091;SDS011;46975;51.898;11.444;2022-12-18T00:37:35;29.58;;;13.93;;
61091;SDS011;46975;51.898;11.444;2022-12-18T00:40:01;31.48;;;13.82;;
61091;SDS011;46975;51.898;11.444;2022-12-18T00:42:28;31.88;;;14.55;;
61091;SDS011;46975;51.898;11.444;2022-12-18T00:45:12;22.52;;;11.13;;
61091;SDS011;46975;51.898;11.444;2022-12-18T00:47:38;30.90;;;14.13;;
61091;SDS011;46975;51.898;11.444;2022-12-18T00:50:04;31.63;;;16.13;;
61091;SDS011;46975;51.898;11.444;2022-12-18T00:52:30;32.70;;;14.57;;
61091;SDS011;46975;51.898;11.444;2022-12-18T00:54:55;32.13;;;15.00;;
61091;SDS011;46975;51.898;11.444;2022-12-18T00:57:21;35.58;;;15.20;;
61091;SDS011;46975;51.898;11.444;2022-12-18T00:59:47;34.83;;;16.20;;
61091;SDS011;46975;51.898;11.444;2022-12-18T01:02:13;36.60;;;15.80;;
61091;SDS011;46975;51.898;11.444;2022-12-18T01:04:38;34.47;;;16.17;;
61091;SDS011;46975;51.898;11.444;2022-12-18T01:07:04;29.17;;;13.18;;
61091;SDS011;46975;51.898;11.444;2022-12-18T01:09:29;34.78;;;14.65;;
61091;SDS011;46975;51.898;11.444;2022-12-18T01:11:55;29.48;;;12.88;;
61091;SDS011;46975;51.898;11.444;2022-12-18T01:14:21;34.42;;;14.30;;
61091;SDS011;46975;51.898;11.444;2022-12-18T01:16:47;33.55;;;13.60;;
61091;SDS011;46975;51.898;11.444;2022-12-18T01:19:12;39.30;;;14.98;;
61091;SDS011;46975;51.898;11.444;2022-12-18T01:21:38;29.15;;;13.93;;
61091;SDS011;46975;51.898;11.444;2022-12-18T01:24:04;34.53;;;16.73;;
61091;SDS011;46975;51.898;11.444;2022-12-18T01:26:29;28.05;;;14.20;;
61091;SDS011;46975;51.898;11.444;2022-12-18T01:28:55;42.80;;;16.40;;
61091;SDS011;46975;51.898;11.444;2022-12-18T01:31:25;35.15;;;15.38;;
61091;SDS011;46975;51.898;11.444;2022-12-18T01:33:52;44.35;;;15.82;;
61091;SDS011;46975;51.898;11.444;2022-12-18T01:36:22;30.80;;;12.95;;
61091;SDS011;46975;51.898;11.444;2022-12-18T01:38:50;36.50;;;15.50;;
61091;SDS011;46975;51.898;11.444;2022-12-18T01:41:20;32.50;;;14.35;;
61091;SDS011;46975;51.898;11.444;2022-12-18T01:43:52;38.03;;;14.52;;
61091;SDS011;46975;51.898;11.444;2022-12-18T01:46:19;38.47;;;16.05;;
61091;SDS011;46975;51.898;11.444;2022-12-18T01:48:50;33.35;;;14.13;;
61091;SDS011;46975;51.898;11.444;2022-12-18T01:51:18;32.42;;;13.38;;
61091;SDS011;46975;51.898;11.444;2022-12-18T01:53:44;30.73;;;12.93;;
61091;SDS011;46975;51.898;11.444;2022-12-18T01:56:12;32.65;;;15.00;;
61091;SDS011;46975;51.898;11.444;2022-12-18T02:01:25;42.05;;;15.80;;
61091;SDS011;46975;51.898;11.444;2022-12-18T02:03:51;34.33;;;13.75;;
61091;SDS011;46975;51.898;11.444;2022-12-18T02:09:11;39.22;;;16.25;;
61091;SDS011;46975;51.898;11.444;2022-12-18T02:14:41;34.28;;;14.93;;
61091;SDS011;46975;51.898;11.444;2022-12-18T02:17:43;31.45;;;14.02;;
61091;SDS011;46975;51.898;11.444;2022-12-18T02:28:17;29.70;;;12.57;;
61091;SDS011;46975;51.898;11.444;2022-12-18T02:30:47;32.88;;;12.40;;
61091;SDS011;46975;51.898;11.444;2022-12-18T02:33:16;32.58;;;13.93;;
61091;SDS011;46975;51.898;11.444;2022-12-18T02:38:10;32.55;;;12.77;;
61091;SDS011;46975;51.898;11.444;2022-12-18T02:40:37;38.63;;;13.75;;
61091;SDS011;46975;51.898;11.444;2022-12-18T02:43:07;28.60;;;13.85;;
61091;SDS011;46975;51.898;11.444;2022-12-18T02:45:48;31.80;;;12.98;;
61091;SDS011;46975;51.898;11.444;2022-12-18T02:48:23;29.75;;;14.13;;
61091;SDS011;46975;51.898;11.444;2022-12-18T02:51:11;33.40;;;13.88;;
61091;SDS011;46975;51.898;11.444;2022-12-18T02:54:06;28.70;;;13.93;;
61091;SDS011;46975;51.898;11.444;2022-12-18T02:56:40;35.13;;;15.10;;
61091;SDS011;46975;51.898;11.444;2022-12-18T02:59:15;34.70;;;13.52;;
61091;SDS011;46975;51.898;11.444;2022-12-18T03:01:54;27.65;;;14.27;;
61091;SDS011;46975;51.898;11.444;2022-12-18T03:04:33;30.90;;;13.50;;
61091;SDS011;46975;51.898;11.444;2022-12-18T03:07:10;35.17;;;13.25;;
61091;SDS011;46975;51.898;11.444;2022-12-18T03:09:42;34.83;;;12.43;;
61091;SDS011;46975;51.898;11.444;2022-12-18T03:17:48;28.08;;;13.40;;
61091;SDS011;46975;51.898;11.444;2022-12-18T03:20:22;32.53;;;14.43;;
61091;SDS011;46975;51.898;11.444;2022-12-18T03:22:51;32.88;;;13.70;;
61091;SDS011;46975;51.898;11.444;2022-12-18T03:25:23;33.17;;;13.73;;
61091;SDS011;46975;51.898;11.444;2022-12-18T03:27:53;33.72;;;14.88;;
61091;SDS011;46975;51.898;11.444;2022-12-18T03:30:22;32.65;;;14.68;;
61091;SDS011;46975;51.898;11.444;2022-12-18T03:32:58;36.25;;;14.88;;
61091;SDS011;46975;51.898;11.444;2022-12-18T03:35:39;28.98;;;13.93;;
61091;SDS011;46975;51.898;11.444;2022-12-18T03:38:08;39.20;;;12.63;;
61091;SDS011;46975;51.898;11.444;2022-12-18T03:40:45;37.08;;;13.80;;
61091;SDS011;46975;51.898;11.444;2022-12-18T03:48:52;30.20;;;13.40;;
61091;SDS011;46975;51.898;11.444;2022-12-18T03:51:38;28.75;;;12.20;;
61091;SDS011;46975;51.898;11.444;2022-12-18T03:54:05;32.10;;;12.88;;
61091;SDS011;46975;51.898;11.444;2022-12-18T03:56:36;38.42;;;13.90;;
61091;SDS011;46975;51.898;11.444;2022-12-18T03:59:10;33.78;;;15.18;;
61091;SDS011;46975;51.898;11.444;2022-12-18T04:01:40;30.55;;;14.07;;
61091;SDS011;46975;51.898;11.444;2022-12-18T04:04:11;27.65;;;11.23;;
61091;SDS011;46975;51.898;11.444;2022-12-18T04:06:38;28.38;;;12.48;;
61091;SDS011;46975;51.898;11.444;2022-12-18T04:09:05;32.55;;;13.00;;
61091;SDS011;46975;51.898;11.444;2022-12-18T04:11:31;33.03;;;12.55;;
61091;SDS011;46975;51.898;11.444;2022-12-18T04:13:57;32.30;;;13.18;;
61091;SDS011;46975;51.898;11.444;2022-12-18T04:16:24;23.85;;;11.88;;
61091;SDS011;46975;51.898;11.444;2022-12-18T04:18:50;30.42;;;11.98;;
61091;SDS011;46975;51.898;11.444;2022-12-18T04:21:15;27.27;;;13.13;;
61091;SDS011;46975;51.898;11.444;2022-12-18T04:23:41;32.13;;;12.73;;
61091;SDS011;46975;51.898;11.444;2022-12-18T04:26:07;30.67;;;11.13;;
61091;SDS011;46975;51.898;11.444;2022-12-18T04:28:32;31.58;;;12.05;;
61091;SDS011;46975;51.898;11.444;2022-12-18T04:30:58;22.83;;;10.98;;
61091;SDS011;46975;51.898;11.444;2022-12-18T04:33:24;27.33;;;14.23;;
61091;SDS011;46975;51.898;11.444;2022-12-18T04:35:49;27.23;;;12.60;;
61091;SDS011;46975;51.898;11.444;2022-12-18T04:38:15;34.92;;;12.88;;
61091;SDS011;46975;51.898;11.444;2022-12-18T04:40:41;27.70;;;11.85;;
61091;SDS011;46975;51.898;11.444;2022-12-18T04:43:08;31.33;;;12.18;;
61091;SDS011;46975;51.898;11.444;2022-12-18T04:45:34;34.97;;;15.50;;
61091;SDS011;46975;51.898;11.444;2022-12-18T04:48:00;27.55;;;13.23;;
61091;SDS011;46975;51.898;11.444;2022-12-18T04:50:27;25.67;;;13.60;;
61091;SDS011;46975;51.898;11.444;2022-12-18T04:52:53;31.42;;;12.10;;
61091;SDS011;46975;51.898;11.444;2022-12-18T04:55:19;29.13;;;13.93;;
61091;SDS011;46975;51.898;11.444;2022-12-18T04:57:44;22.50;;;9.43;;
61091;SDS011;46975;51.898;11.444;2022-12-18T05:00:10;31.73;;;11.32;;
61091;SDS011;46975;51.898;11.444;2022-12-18T05:02:36;25.00;;;11.55;;
61091;SDS011;46975;51.898;11.444;2022-12-18T05:05:02;27.63;;;12.25;;
61091;SDS011;46975;51.898;11.444;2022-12-18T05:07:28;24.73;;;11.57;;
61091;SDS011;46975;51.898;11.444;2022-12-18T05:09:54;32.20;;;11.85;;
61091;SDS011;46975;51.898;11.444;2022-12-18T05:12:20;23.75;;;11.38;;
61091;SDS011;46975;51.898;11.444;2022-12-18T05:14:46;28.80;;;11.00;;
61091;SDS011;46975;51.898;11.444;2022-12-18T05:17:11;27.95;;;13.88;;
61091;SDS011;46975;51.898;11.444;2022-12-18T05:19:37;22.33;;;11.15;;
61091;SDS011;46975;51.898;11.444;2022-12-18T05:22:03;32.95;;;12.88;;
61091;SDS011;46975;51.898;11.444;2022-12-18T05:24:28;30.73;;;14.43;;
61091;SDS011;46975;51.898;11.444;2022-12-18T05:26:54;23.80;;;10.75;;
61091;SDS011;46975;51.898;11.444;2022-12-18T05:29:19;26.60;;;12.00;;
61091;SDS011;46975;51.898;11.444;2022-12-18T05:31:45;30.17;;;13.13;;
61091;SDS011;46975;51.898;11.444;2022-12-18T05:34:11;26.95;;;12.27;;
61091;SDS011;46975;51.898;11.444;2022-12-18T05:36:36;28.60;;;12.07;;
61091;SDS011;46975;51.898;11.444;2022-12-18T05:39:02;36.22;;;13.68;;
61091;SDS011;46975;51.898;11.444;2022-12-18T05:41:28;30.42;;;12.73;;
61091;SDS011;46975;51.898;11.444;2022-12-18T05:43:54;31.40;;;11.27;;
61091;SDS011;46975;51.898;11.444;2022-12-18T05:46:20;26.90;;;12.02;;
61091;SDS011;46975;51.898;11.444;2022-12-18T05:48:45;26.42;;;12.18;;
61091;SDS011;46975;51.898;11.444;2022-12-18T05:51:13;29.23;;;12.80;;
61091;SDS011;46975;51.898;11.444;2022-12-18T05:53:40;30.10;;;13.02;;
61091;SDS011;46975;51.898;11.444;2022-12-18T05:56:08;33.63;;;14.95;;
61091;SDS011;46975;51.898;11.444;2022-12-18T05:58:36;33.13;;;12.80;;
61091;SDS011;46975;51.898;11.444;2022-12-18T06:01:06;37.60;;;13.20;;
61091;SDS011;46975;51.898;11.444;2022-12-18T06:03:43;38.30;;;15.55;;
61091;SDS011;46975;51.898;11.444;2022-12-18T06:06:12;34.50;;;13.63;;
61091;SDS011;46975;51.898;11.444;2022-12-18T06:08:38;31.27;;;13.18;;
61091;SDS011;46975;51.898;11.444;2022-12-18T06:11:04;38.17;;;14.85;;
61091;SDS011;46975;51.898;11.444;2022-12-18T06:13:30;36.83;;;14.60;;
61091;SDS011;46975;51.898;11.444;2022-12-18T06:15:55;35.28;;;13.77;;
61091;SDS011;46975;51.898;11.444;2022-12-18T06:18:21;32.05;;;13.75;;
61091;SDS011;46975;51.898;11.444;2022-12-18T06:20:54;43.92;;;16.70;;
61091;SDS011;46975;51.898;11.444;2022-12-18T06:23:23;43.88;;;15.15;;
61091;SDS011;46975;51.898;11.444;2022-12-18T06:25:48;39.95;;;16.77;;
61091;SDS011;46975;51.898;11.444;2022-12-18T06:28:14;47.95;;;15.77;;
61091;SDS011;46975;51.898;11.444;2022-12-18T06:30:42;37.45;;;15.90;;
61091;SDS011;46975;51.898;11.444;2022-12-18T06:33:09;34.38;;;13.50;;
61091;SDS011;46975;51.898;11.444;2022-12-18T06:35:35;30.42;;;13.15;;
61091;SDS011;46975;51.898;11.444;2022-12-18T06:38:01;36.33;;;12.20;;
61091;SDS011;46975;51.898;11.444;2022-12-18T06:40:27;28.85;;;13.88;;
61091;SDS011;46975;51.898;11.444;2022-12-18T06:42:53;31.05;;;13.23;;
61091;SDS011;46975;51.898;11.444;2022-12-18T06:45:18;30.80;;;12.15;;
61091;SDS011;46975;51.898;11.444;2022-12-18T06:47:44;26.50;;;10.88;;
61091;SDS011;46975;51.898;11.444;2022-12-18T06:50:10;26.20;;;11.00;;
61091;SDS011;46975;51.898;11.444;2022-12-18T06:52:36;24.48;;;11.25;;
61091;SDS011;46975;51.898;11.444;2022-12-18T06:55:02;21.65;;;9.65;;
61091;SDS011;46975;51.898;11.444;2022-12-18T06:57:28;22.25;;;9.70;;
61091;SDS011;46975;51.898;11.444;2022-12-18T06:59:54;21.65;;;10.25;;
61091;SDS011;46975;51.898;11.444;2022-12-18T07:02:19;24.60;;;11.60;;
61091;SDS011;46975;51.898;11.444;2022-12-18T07:04:45;20.02;;;8.80;;
61091;SDS011;46975;51.898;11.444;2022-12-18T07:07:10;24.45;;;10.73;;
61091;SDS011;46975;51.898;11.444;2022-12-18T07:09:36;29.83;;;11.43;;
61091;SDS011;46975;51.898;11.444;2022-12-18T07:12:02;26.33;;;12.70;;
61091;SDS011;46975;51.898;11.444;2022-12-18T07:14:29;23.83;;;10.52;;
61091;SDS011;46975;51.898;11.444;2022-12-18T07:16:55;23.00;;;11.38;;
61091;SDS011;46975;51.898;11.444;2022-12-18T07:19:21;24.45;;;10.25;;
61091;SDS011;46975;51.898;11.444;2022-12-18T07:21:46;26.20;;;10.13;;
61091;SDS011;46975;51.898;11.444;2022-12-18T07:24:12;25.10;;;11.77;;
61091;SDS011;46975;51.898;11.444;2022-12-18T07:26:37;19.52;;;9.60;;
61091;SDS011;46975;51.898;11.444;2022-12-18T07:29:03;33.65;;;11.05;;
61091;SDS011;46975;51.898;11.444;2022-12-18T07:31:29;24.00;;;10.82;;
61091;SDS011;46975;51.898;11.444;2022-12-18T07:33:54;23.45;;;10.07;;
61091;SDS011;46975;51.898;11.444;2022-12-18T07:36:23;19.52;;;9.50;;
61091;SDS011;46975;51.898;11.444;2022-12-18T07:38:49;27.27;;;13.38;;
61091;SDS011;46975;51.898;11.444;2022-12-18T07:41:16;21.20;;;11.43;;
61091;SDS011;46975;51.898;11.444;2022-12-18T07:43:43;27.13;;;11.25;;
61091;SDS011;46975;51.898;11.444;2022-12-18T07:46:09;28.35;;;11.15;;
61091;SDS011;46975;51.898;11.444;2022-12-18T07:48:38;35.90;;;12.18;;
61091;SDS011;46975;51.898;11.444;2022-12-18T07:51:05;25.95;;;11.65;;
61091;SDS011;46975;51.898;11.444;2022-12-18T07:53:32;23.25;;;10.32;;
61091;SDS011;46975;51.898;11.444;2022-12-18T07:55:59;27.13;;;11.40;;
61091;SDS011;46975;51.898;11.444;2022-12-18T08:00:52;21.92;;;10.80;;
61091;SDS011;46975;51.898;11.444;2022-12-18T08:03:18;21.17;;;9.18;;
61091;SDS011;46975;51.898;11.444;2022-12-18T08:05:44;27.73;;;11.07;;
61091;SDS011;46975;51.898;11.444;2022-12-18T08:08:10;27.42;;;10.70;;
61091;SDS011;46975;51.898;11.444;2022-12-18T08:10:35;30.90;;;11.75;;
61091;SDS011;46975;51.898;11.444;2022-12-18T08:13:02;27.38;;;11.02;;
61091;SDS011;46975;51.898;11.444;2022-12-18T08:15:27;24.17;;;11.48;;
61091;SDS011;46975;51.898;11.444;2022-12-18T08:17:56;30.05;;;13.65;;
61091;SDS011;46975;51.898;11.444;2022-12-18T08:20:22;24.80;;;11.73;;
61091;SDS011;46975;51.898;11.444;2022-12-18T08:22:47;22.77;;;10.18;;
61091;SDS011;46975;51.898;11.444;2022-12-18T08:25:13;28.95;;;11.93;;
61091;SDS011;46975;51.898;11.444;2022-12-18T08:27:38;20.08;;;9.77;;
61091;SDS011;46975;51.898;11.444;2022-12-18T08:30:04;21.35;;;11.30;;
61091;SDS011;46975;51.898;11.444;2022-12-18T08:32:31;22.30;;;11.55;;
61091;SDS011;46975;51.898;11.444;2022-12-18T08:34:57;23.75;;;11.85;;
61091;SDS011;46975;51.898;11.444;2022-12-18T08:37:23;23.20;;;11.75;;
61091;SDS011;46975;51.898;11.444;2022-12-18T08:39:49;25.95;;;11.63;;
61091;SDS011;46975;51.898;11.444;2022-12-18T08:42:14;26.55;;;12.68;;
61091;SDS011;46975;51.898;11.444;2022-12-18T08:44:59;24.73;;;11.05;;
61091;SDS011;46975;51.898;11.444;2022-12-18T08:47:25;24.98;;;10.80;;
61091;SDS011;46975;51.898;11.444;2022-12-18T08:49:51;24.63;;;11.30;;
61091;SDS011;46975;51.898;11.444;2022-12-18T08:52:16;23.98;;;11.27;;
61091;SDS011;46975;51.898;11.444;2022-12-18T08:54:42;20.52;;;10.15;;
61091;SDS011;46975;51.898;11.444;2022-12-18T08:57:08;26.30;;;11.68;;
61091;SDS011;46975;51.898;11.444;2022-12-18T08:59:33;27.55;;;10.65;;
61091;SDS011;46975;51.898;11.444;2022-12-18T09:01:59;28.58;;;11.48;;
61091;SDS011;46975;51.898;11.444;2022-12-18T09:04:25;24.70;;;11.55;;
61091;SDS011;46975;51.898;11.444;2022-12-18T09:06:50;28.35;;;12.55;;
61091;SDS011;46975;51.898;11.444;2022-12-18T09:09:16;20.35;;;10.32;;
61091;SDS011;46975;51.898;11.444;2022-12-18T09:11:42;29.52;;;12.00;;
61091;SDS011;46975;51.898;11.444;2022-12-18T09:14:08;22.80;;;10.73;;
61091;SDS011;46975;51.898;11.444;2022-12-18T09:16:34;22.05;;;10.25;;
61091;SDS011;46975;51.898;11.444;2022-12-18T09:19:00;24.67;;;11.15;;
61091;SDS011;46975;51.898;11.444;2022-12-18T09:21:28;23.25;;;9.80;;
61091;SDS011;46975;51.898;11.444;2022-12-18T09:23:58;23.70;;;10.48;;
61091;SDS011;46975;51.898;11.444;2022-12-18T09:26:25;26.15;;;12.32;;
61091;SDS011;46975;51.898;11.444;2022-12-18T09:28:51;21.00;;;10.52;;
61091;SDS011;46975;51.898;11.444;2022-12-18T09:31:19;19.58;;;10.82;;
61091;SDS011;46975;51.898;11.444;2022-12-18T09:33:45;24.33;;;11.43;;
61091;SDS011;46975;51.898;11.444;2022-12-18T09:36:12;28.63;;;12.48;;
61091;SDS011;46975;51.898;11.444;2022-12-18T09:38:39;23.67;;;11.90;;
61091;SDS011;46975;51.898;11.444;2022-12-18T09:41:23;23.75;;;11.30;;
61091;SDS011;46975;51.898;11.444;2022-12-18T09:49:58;26.15;;;12.45;;
61091;SDS011;46975;51.898;11.444;2022-12-18T09:52:27;29.73;;;12.93;;
61091;SDS011;46975;51.898;11.444;2022-12-18T09:55:03;26.58;;;12.13;;
61091;SDS011;46975;51.898;11.444;2022-12-18T09:57:44;26.30;;;11.63;;
61091;SDS011;46975;51.898;11.444;2022-12-18T10:02:45;27.05;;;11.95;;
61091;SDS011;46975;51.898;11.444;2022-12-18T10:05:13;25.00;;;12.00;;
61091;SDS011;46975;51.898;11.444;2022-12-18T10:07:49;31.33;;;12.93;;
61091;SDS011;46975;51.898;11.444;2022-12-18T10:10:20;30.05;;;14.43;;
61091;SDS011;46975;51.898;11.444;2022-12-18T10:15:54;27.23;;;13.55;;
61091;SDS011;46975;51.898;11.444;2022-12-18T10:21:48;26.58;;;14.50;;
61091;SDS011;46975;51.898;11.444;2022-12-18T10:24:35;29.40;;;13.25;;
61091;SDS011;46975;51.898;11.444;2022-12-18T10:27:18;22.67;;;12.18;;
61091;SDS011;46975;51.898;11.444;2022-12-18T10:29:49;27.58;;;12.82;;
61091;SDS011;46975;51.898;11.444;2022-12-18T10:32:18;25.33;;;13.65;;
61091;SDS011;46975;51.898;11.444;2022-12-18T10:34:50;29.30;;;14.70;;
61091;SDS011;46975;51.898;11.444;2022-12-18T10:37:17;31.50;;;14.80;;
61091;SDS011;46975;51.898;11.444;2022-12-18T10:39:45;27.50;;;15.32;;
61091;SDS011;46975;51.898;11.444;2022-12-18T10:42:19;31.83;;;15.80;;
61091;SDS011;46975;51.898;11.444;2022-12-18T10:44:45;29.88;;;15.65;;
61091;SDS011;46975;51.898;11.444;2022-12-18T10:47:12;30.50;;;15.32;;
61091;SDS011;46975;51.898;11.444;2022-12-18T10:49:47;30.27;;;15.25;;
61091;SDS011;46975;51.898;11.444;2022-12-18T10:52:21;37.55;;;16.10;;
61091;SDS011;46975;51.898;11.444;2022-12-18T10:54:57;29.08;;;14.88;;
61091;SDS011;46975;51.898;11.444;2022-12-18T10:57:37;36.92;;;17.83;;
61091;SDS011;46975;51.898;11.444;2022-12-18T11:02:54;33.65;;;14.55;;
61091;SDS011;46975;51.898;11.444;2022-12-18T11:05:28;32.25;;;16.50;;
61091;SDS011;46975;51.898;11.444;2022-12-18T11:07:56;32.95;;;15.52;;
61091;SDS011;46975;51.898;11.444;2022-12-18T11:10:33;34.03;;;15.93;;
61091;SDS011;46975;51.898;11.444;2022-12-18T11:13:09;35.25;;;16.00;;
61091;SDS011;46975;51.898;11.444;2022-12-18T11:15:43;30.58;;;14.02;;
61091;SDS011;46975;51.898;11.444;2022-12-18T11:18:19;33.90;;;15.55;;
61091;SDS011;46975;51.898;11.444;2022-12-18T11:20:56;28.40;;;14.00;;
61091;SDS011;46975;51.898;11.444;2022-12-18T11:23:25;26.42;;;13.95;;
61091;SDS011;46975;51.898;11.444;2022-12-18T11:25:53;28.88;;;14.35;;
61091;SDS011;46975;51.898;11.444;2022-12-18T11:28:29;28.92;;;13.90;;
61091;SDS011;46975;51.898;11.444;2022-12-18T11:34:08;32.92;;;15.63;;
61091;SDS011;46975;51.898;11.444;2022-12-18T11:36:46;34.85;;;15.23;;
61091;SDS011;46975;51.898;11.444;2022-12-18T11:39:17;29.70;;;14.32;;
61091;SDS011;46975;51.898;11.444;2022-12-18T11:41:58;31.95;;;15.02;;
61091;SDS011;46975;51.898;11.444;2022-12-18T11:44:52;32.40;;;15.88;;
61091;SDS011;46975;51.898;11.444;2022-12-18T11:47:32;34.80;;;17.60;;
61091;SDS011;46975;51.898;11.444;2022-12-18T11:50:13;26.83;;;14.32;;
61091;SDS011;46975;51.898;11.444;2022-12-18T11:52:42;34.63;;;16.95;;
61091;SDS011;46975;51.898;11.444;2022-12-18T11:55:30;32.60;;;15.65;;
61091;SDS011;46975;51.898;11.444;2022-12-18T12:00:39;29.88;;;16.27;;
61091;SDS011;46975;51.898;11.444;2022-12-18T12:03:27;32.33;;;14.23;;
61091;SDS011;46975;51.898;11.444;2022-12-18T12:20:10;27.35;;;15.30;;
61091;SDS011;46975;51.898;11.444;2022-12-18T12:28:36;31.77;;;17.00;;
61091;SDS011;46975;51.898;11.444;2022-12-18T12:34:26;26.35;;;15.43;;
61091;SDS011;46975;51.898;11.444;2022-12-18T12:37:06;32.42;;;15.48;;
61091;SDS011;46975;51.898;11.444;2022-12-18T12:39:37;33.55;;;15.65;;
61091;SDS011;46975;51.898;11.444;2022-12-18T12:42:06;33.92;;;15.25;;
61091;SDS011;46975;51.898;11.444;2022-12-18T12:45:03;28.33;;;15.07;;
61091;SDS011;46975;51.898;11.444;2022-12-18T12:47:33;28.52;;;14.00;;
61091;SDS011;46975;51.898;11.444;2022-12-18T12:50:03;25.38;;;14.00;;
61091;SDS011;46975;51.898;11.444;2022-12-18T12:55:04;24.00;;;13.68;;
61091;SDS011;46975;51.898;11.444;2022-12-18T12:57:34;27.48;;;15.20;;
61091;SDS011;46975;51.898;11.444;2022-12-18T13:08:01;27.15;;;14.75;;
61091;SDS011;46975;51.898;11.444;2022-12-18T13:15:38;32.30;;;15.30;;
61091;SDS011;46975;51.898;11.444;2022-12-18T13:20:35;26.08;;;13.43;;
61091;SDS011;46975;51.898;11.444;2022-12-18T13:25:51;31.25;;;14.57;;
61091;SDS011;46975;51.898;11.444;2022-12-18T13:31:15;34.70;;;17.23;;
61091;SDS011;46975;51.898;11.444;2022-12-18T13:36:51;36.00;;;17.02;;
61091;SDS011;46975;51.898;11.444;2022-12-18T13:41:47;38.63;;;16.55;;
61091;SDS011;46975;51.898;11.444;2022-12-18T13:47:05;34.45;;;14.77;;
61091;SDS011;46975;51.898;11.444;2022-12-18T13:49:51;35.08;;;15.90;;
61091;SDS011;46975;51.898;11.444;2022-12-18T13:52:21;22.30;;;11.52;;
61091;SDS011;46975;51.898;11.444;2022-12-18T13:54:51;24.92;;;13.63;;
61091;SDS011;46975;51.898;11.444;2022-12-18T13:57:25;32.33;;;14.23;;
61091;SDS011;46975;51.898;11.444;2022-12-18T13:59:54;30.55;;;15.43;;
61091;SDS011;46975;51.898;11.444;2022-12-18T14:02:22;28.70;;;13.10;;
61091;SDS011;46975;51.898;11.444;2022-12-18T14:04:50;28.70;;;16.08;;
61091;SDS011;46975;51.898;11.444;2022-12-18T14:07:25;28.77;;;14.20;;
61091;SDS011;46975;51.898;11.444;2022-12-18T14:12:23;18.48;;;10.40;;
61091;SDS011;46975;51.898;11.444;2022-12-18T14:15:54;27.02;;;13.85;;
61091;SDS011;46975;51.898;11.444;2022-12-18T14:20:59;27.63;;;12.52;;
61091;SDS011;46975;51.898;11.444;2022-12-18T14:23:32;30.23;;;12.70;;
61091;SDS011;46975;51.898;11.444;2022-12-18T14:26:18;25.42;;;12.13;;
61091;SDS011;46975;51.898;11.444;2022-12-18T14:28:46;25.38;;;10.05;;
61091;SDS011;46975;51.898;11.444;2022-12-18T14:31:23;27.95;;;13.35;;
61091;SDS011;46975;51.898;11.444;2022-12-18T14:36:21;26.45;;;11.77;;
61091;SDS011;46975;51.898;11.444;2022-12-18T14:38:55;19.92;;;11.07;;
61091;SDS011;46975;51.898;11.444;2022-12-18T14:41:22;25.42;;;11.75;;
61091;SDS011;46975;51.898;11.444;2022-12-18T14:43:50;24.17;;;12.70;;
61091;SDS011;46975;51.898;11.444;2022-12-18T14:46:29;23.63;;;13.27;;
61091;SDS011;46975;51.898;11.444;2022-12-18T14:54:16;22.90;;;12.50;;
61091;SDS011;46975;51.898;11.444;2022-12-18T14:56:44;28.95;;;13.32;;
61091;SDS011;46975;51.898;11.444;2022-12-18T14:59:30;25.05;;;11.82;;
61091;SDS011;46975;51.898;11.444;2022-12-18T15:02:04;21.23;;;11.45;;
61091;SDS011;46975;51.898;11.444;2022-12-18T15:04:43;26.98;;;11.88;;
61091;SDS011;46975;51.898;11.444;2022-12-18T15:09:42;24.20;;;12.95;;
61091;SDS011;46975;51.898;11.444;2022-12-18T15:12:19;22.60;;;11.88;;
61091;SDS011;46975;51.898;11.444;2022-12-18T15:14:51;19.35;;;9.82;;
61091;SDS011;46975;51.898;11.444;2022-12-18T15:17:17;31.08;;;13.55;;
61091;SDS011;46975;51.898;11.444;2022-12-18T15:19:46;25.08;;;13.20;;
61091;SDS011;46975;51.898;11.444;2022-12-18T15:22:17;18.92;;;7.88;;
61091;SDS011;46975;51.898;11.444;2022-12-18T15:24:49;19.83;;;10.65;;
61091;SDS011;46975;51.898;11.444;2022-12-18T15:32:38;23.80;;;11.05;;
61091;SDS011;46975;51.898;11.444;2022-12-18T15:37:39;19.55;;;10.85;;
61091;SDS011;46975;51.898;11.444;2022-12-18T15:40:06;25.60;;;12.15;;
61091;SDS011;46975;51.898;11.444;2022-12-18T15:42:36;17.63;;;8.48;;
61091;SDS011;46975;51.898;11.444;2022-12-18T15:45:20;22.25;;;12.13;;
61091;SDS011;46975;51.898;11.444;2022-12-18T15:47:46;28.50;;;13.27;;
61091;SDS011;46975;51.898;11.444;2022-12-18T15:50:12;25.00;;;12.15;;
61091;SDS011;46975;51.898;11.444;2022-12-18T15:52:44;20.90;;;10.27;;
61091;SDS011;46975;51.898;11.444;2022-12-18T15:55:11;13.98;;;7.05;;
61091;SDS011;46975;51.898;11.444;2022-12-18T15:58:01;16.70;;;8.77;;
61091;SDS011;46975;51.898;11.444;2022-12-18T16:00:26;19.55;;;8.32;;
61091;SDS011;46975;51.898;11.444;2022-12-18T16:02:52;23.02;;;9.27;;
61091;SDS011;46975;51.898;11.444;2022-12-18T16:05:18;22.00;;;11.38;;
61091;SDS011;46975;51.898;11.444;2022-12-18T16:07:46;23.75;;;11.48;;
61091;SDS011;46975;51.898;11.444;2022-12-18T16:10:12;18.75;;;10.02;;
61091;SDS011;46975;51.898;11.444;2022-12-18T16:12:38;20.60;;;11.43;;
61091;SDS011;46975;51.898;11.444;2022-12-18T16:15:04;16.75;;;9.63;;
61091;SDS011;46975;51.898;11.444;2022-12-18T16:17:31;21.45;;;9.40;;
61091;SDS011;46975;51.898;11.444;2022-12-18T16:19:57;24.13;;;12.05;;
61091;SDS011;46975;51.898;11.444;2022-12-18T16:22:24;25.67;;;10.88;;
61091;SDS011;46975;51.898;11.444;2022-12-18T16:24:52;27.52;;;12.20;;
61091;SDS011;46975;51.898;11.444;2022-12-18T16:27:18;27.30;;;12.02;;
61091;SDS011;46975;51.898;11.444;2022-12-18T16:29:44;18.05;;;9.93;;
61091;SDS011;46975;51.898;11.444;2022-12-18T16:32:20;21.08;;;10.60;;
61091;SDS011;46975;51.898;11.444;2022-12-18T16:34:46;23.85;;;11.80;;
61091;SDS011;46975;51.898;11.444;2022-12-18T16:37:13;23.42;;;9.32;;